Time;durP1;ratioP1;P1;durP2;ratioP2;P2;SDS_P1;SDS_P2;PMS_P1;PMS_P2;Temp;Humidity;BMP_temperature;BMP_pressure;BME280_temperature;BME280_humidity;BME280_pressure;Samples;Min_cycle;Max_cycle;Signal;HPM_P1;HPM_P2
2021/11/14 00:00:46;;;;;;;16.38;14.60;;;;;;;;;;5044497;28;20199;-59
2021/11/14 00:03:13;;;;;;;16.20;13.82;;;;;;;;;;5046490;28;20207;-60
2021/11/14 00:05:42;;;;;;;17.70;14.90;;;;;;;;;;5047231;28;20207;-60
2021/11/14 00:08:10;;;;;;;18.30;15.55;;;;;;;;;;5036158;28;20231;-61
2021/11/14 00:10:37;;;;;;;17.60;13.90;;;;;;;;;;5041154;28;20211;-60
2021/11/14 00:13:04;;;;;;;18.10;14.10;;;;;;;;;;5041450;28;20220;-60
2021/11/14 00:15:33;;;;;;;15.98;13.90;;;;;;;;;;5040299;28;20207;-61
2021/11/14 00:18:01;;;;;;;17.60;15.27;;;;;;;;;;5038919;28;20227;-60
2021/11/14 00:20:28;;;;;;;16.85;13.88;;;;;;;;;;5034835;28;20210;-61
2021/11/14 00:22:55;;;;;;;23.23;14.43;;;;;;;;;;5034219;28;20202;-60
2021/11/14 00:25:23;;;;;;;16.40;14.68;;;;;;;;;;5037397;28;20206;-61
2021/11/14 00:27:51;;;;;;;16.35;13.52;;;;;;;;;;5038302;28;20573;-59
2021/11/14 00:30:19;;;;;;;17.80;13.77;;;;;;;;;;5038361;28;20202;-61
2021/11/14 00:32:50;;;;;;;18.38;14.65;;;;;;;;;;5037911;28;20203;-61
2021/11/14 00:35:18;;;;;;;18.30;14.27;;;;;;;;;;5038220;28;20265;-60
2021/11/14 00:37:45;;;;;;;16.90;13.95;;;;;;;;;;5041294;28;20227;-60
2021/11/14 00:40:14;;;;;;;17.00;14.30;;;;;;;;;;5046124;28;20215;-60
2021/11/14 00:42:41;;;;;;;14.80;12.70;;;;;;;;;;5037298;28;20214;-61
2021/11/14 00:45:09;;;;;;;16.98;14.70;;;;;;;;;;5037418;28;20201;-60
2021/11/14 00:47:37;;;;;;;15.98;12.95;;;;;;;;;;5036893;28;20222;-60
2021/11/14 00:50:09;;;;;;;16.88;13.95;;;;;;;;;;5036917;28;20209;-60
2021/11/14 00:52:37;;;;;;;15.75;12.60;;;;;;;;;;5037371;28;20191;-61
2021/11/14 00:55:05;;;;;;;19.23;14.05;;;;;;;;;;5037551;28;20222;-60
2021/11/14 00:57:32;;;;;;;19.10;14.63;;;;;;;;;;5040715;28;20223;-60
2021/11/14 01:00:00;;;;;;;16.25;14.00;;;;;;;;;;5037679;28;20207;-61
2021/11/14 01:02:27;;;;;;;19.70;15.35;;;;;;;;;;5037723;28;20211;-60
2021/11/14 01:04:54;;;;;;;16.42;13.60;;;;;;;;;;5037938;28;20214;-60
2021/11/14 01:07:23;;;;;;;17.55;14.98;;;;;;;;;;5037221;28;20226;-61
2021/11/14 01:09:50;;;;;;;20.70;15.70;;;;;;;;;;5037297;28;20206;-60
2021/11/14 01:12:18;;;;;;;19.65;14.05;;;;;;;;;;5037026;28;20210;-60
2021/11/14 01:14:45;;;;;;;16.73;15.02;;;;;;;;;;5036383;28;20215;-61
2021/11/14 01:17:12;;;;;;;18.75;15.27;;;;;;;;;;5036534;28;20600;-61
2021/11/14 01:19:40;;;;;;;19.92;16.55;;;;;;;;;;5036681;28;20579;-61
2021/11/14 01:22:08;;;;;;;18.95;16.20;;;;;;;;;;5037966;28;20269;-60
2021/11/14 01:24:38;;;;;;;18.40;16.50;;;;;;;;;;5036859;28;20626;-61
2021/11/14 01:27:05;;;;;;;19.08;15.05;;;;;;;;;;5036607;28;20261;-60
2021/11/14 01:29:33;;;;;;;20.75;16.35;;;;;;;;;;5036520;28;20210;-60
2021/11/14 01:32:00;;;;;;;17.58;15.57;;;;;;;;;;5036912;28;20293;-60
2021/11/14 01:34:27;;;;;;;19.70;15.88;;;;;;;;;;5036223;28;20222;-61
2021/11/14 01:36:55;;;;;;;22.17;16.55;;;;;;;;;;5035684;28;20227;-61
2021/11/14 01:39:22;;;;;;;21.55;16.75;;;;;;;;;;5036443;28;20199;-60
2021/11/14 01:41:51;;;;;;;19.92;17.17;;;;;;;;;;5036335;28;20202;-60
2021/11/14 01:44:18;;;;;;;22.48;16.50;;;;;;;;;;5036543;28;20206;-61
2021/11/14 01:46:46;;;;;;;23.10;19.73;;;;;;;;;;5036424;28;20206;-60
2021/11/14 01:49:13;;;;;;;22.67;16.45;;;;;;;;;;5036052;28;20702;-60
2021/11/14 01:51:40;;;;;;;27.08;17.73;;;;;;;;;;5036493;28;20207;-60
2021/11/14 01:54:07;;;;;;;25.25;19.40;;;;;;;;;;5036782;28;20227;-60
2021/11/14 01:56:35;;;;;;;23.40;20.83;;;;;;;;;;5036615;28;20681;-61
2021/11/14 01:59:04;;;;;;;28.52;19.02;;;;;;;;;;5039338;28;20206;-60
2021/11/14 02:01:33;;;;;;;35.45;22.38;;;;;;;;;;5052911;28;20222;-60
2021/11/14 02:04:02;;;;;;;28.85;22.60;;;;;;;;;;5042234;28;20198;-60
2021/11/14 02:06:30;;;;;;;32.17;22.17;;;;;;;;;;5037082;28;20639;-60
2021/11/14 02:08:59;;;;;;;32.25;23.33;;;;;;;;;;5038707;28;20214;-60
2021/11/14 02:11:27;;;;;;;27.13;20.08;;;;;;;;;;5043529;28;20274;-60
2021/11/14 02:13:54;;;;;;;28.60;22.25;;;;;;;;;;5048401;28;20226;-59
2021/11/14 02:16:24;;;;;;;32.13;22.77;;;;;;;;;;5052465;28;20206;-59
2021/11/14 02:18:52;;;;;;;27.50;22.17;;;;;;;;;;5053054;28;20237;-60
2021/11/14 02:21:21;;;;;;;32.45;23.27;;;;;;;;;;5050177;28;20269;-59
2021/11/14 02:23:48;;;;;;;25.98;21.15;;;;;;;;;;5047509;28;20198;-60
2021/11/14 02:26:16;;;;;;;30.58;21.63;;;;;;;;;;5044389;28;20203;-60
2021/11/14 02:28:45;;;;;;;30.33;19.73;;;;;;;;;;5046544;28;20230;-60
2021/11/14 02:31:12;;;;;;;27.35;21.52;;;;;;;;;;5047718;28;20202;-59
2021/11/14 02:33:39;;;;;;;33.03;22.90;;;;;;;;;;5048024;28;20214;-60
2021/11/14 02:36:08;;;;;;;27.92;22.55;;;;;;;;;;5048308;28;20199;-60
2021/11/14 02:38:37;;;;;;;29.77;22.15;;;;;;;;;;5044821;28;20227;-59
2021/11/14 02:41:04;;;;;;;27.70;21.88;;;;;;;;;;5041221;28;20210;-60
2021/11/14 02:43:31;;;;;;;32.00;22.33;;;;;;;;;;5039915;28;20213;-60
2021/11/14 02:45:59;;;;;;;32.75;23.92;;;;;;;;;;5037894;28;20199;-60
2021/11/14 02:48:26;;;;;;;27.83;21.83;;;;;;;;;;5036198;28;20218;-60
2021/11/14 02:50:55;;;;;;;31.15;24.08;;;;;;;;;;5037832;28;20202;-60
2021/11/14 02:53:22;;;;;;;32.03;24.27;;;;;;;;;;5036971;28;20206;-60
2021/11/14 02:55:51;;;;;;;33.65;24.40;;;;;;;;;;5036594;28;20601;-60
2021/11/14 02:58:20;;;;;;;34.33;24.08;;;;;;;;;;5035187;28;20230;-59
2021/11/14 03:00:49;;;;;;;32.00;24.95;;;;;;;;;;5035262;28;20207;-58
2021/11/14 03:03:17;;;;;;;31.48;23.13;;;;;;;;;;5037275;28;20209;-59
2021/11/14 03:05:45;;;;;;;33.15;24.90;;;;;;;;;;5037485;28;20205;-60
2021/11/14 03:08:12;;;;;;;30.88;23.63;;;;;;;;;;5036560;28;20249;-60
2021/11/14 03:10:40;;;;;;;32.45;25.27;;;;;;;;;;5037817;28;20198;-60
2021/11/14 03:13:11;;;;;;;34.20;25.05;;;;;;;;;;5035840;28;20210;-60
2021/11/14 03:15:39;;;;;;;34.60;25.63;;;;;;;;;;5034814;28;20219;-60
2021/11/14 03:18:07;;;;;;;36.03;26.60;;;;;;;;;;5038266;28;20222;-60
2021/11/14 03:20:36;;;;;;;35.45;26.20;;;;;;;;;;5040659;28;20213;-59
2021/11/14 03:23:03;;;;;;;40.60;28.42;;;;;;;;;;5040455;28;20217;-60
2021/11/14 03:25:31;;;;;;;37.17;26.25;;;;;;;;;;5039801;28;20198;-60
2021/11/14 03:27:59;;;;;;;36.30;26.30;;;;;;;;;;5039826;28;20245;-60
2021/11/14 03:30:28;;;;;;;39.28;27.42;;;;;;;;;;5041577;28;20209;-60
2021/11/14 03:32:55;;;;;;;41.97;27.23;;;;;;;;;;5040351;28;20213;-60
2021/11/14 03:35:24;;;;;;;44.00;28.35;;;;;;;;;;5036872;28;20230;-59
2021/11/14 03:37:51;;;;;;;39.00;25.92;;;;;;;;;;5034752;28;20233;-59
2021/11/14 03:40:20;;;;;;;39.70;27.90;;;;;;;;;;5034487;28;20211;-60
2021/11/14 03:42:48;;;;;;;37.72;27.55;;;;;;;;;;5033500;28;20206;-59
2021/11/14 03:45:16;;;;;;;40.30;27.25;;;;;;;;;;5033930;28;20207;-59
2021/11/14 03:47:45;;;;;;;40.38;28.58;;;;;;;;;;5033337;28;20222;-60
2021/11/14 03:50:12;;;;;;;42.97;26.88;;;;;;;;;;5033626;28;20209;-60
2021/11/14 03:52:40;;;;;;;42.05;27.13;;;;;;;;;;5033405;28;20578;-60
2021/11/14 03:55:09;;;;;;;44.22;28.20;;;;;;;;;;5033523;28;20598;-59
2021/11/14 03:57:36;;;;;;;41.97;30.38;;;;;;;;;;5033232;28;20222;-60
2021/11/14 04:00:05;;;;;;;36.00;26.80;;;;;;;;;;5032989;28;20209;-60
2021/11/14 04:02:33;;;;;;;43.63;28.13;;;;;;;;;;5033268;28;20210;-59
2021/11/14 04:05:02;;;;;;;38.33;26.52;;;;;;;;;;5033421;28;20203;-59
2021/11/14 04:08:56;;;;;;;37.38;25.52;;;;;;;;;;5091439;27;20540;-61
2021/11/14 04:11:23;;;;;;;42.65;27.40;;;;;;;;;;5090960;28;20560;-60
2021/11/14 04:13:52;;;;;;;51.22;29.52;;;;;;;;;;5090722;28;20201;-59
2021/11/14 04:16:20;;;;;;;42.60;26.60;;;;;;;;;;5090542;28;20213;-60
2021/11/14 04:18:47;;;;;;;47.55;28.63;;;;;;;;;;5090867;28;20590;-59
2021/11/14 04:21:15;;;;;;;44.88;28.73;;;;;;;;;;5099606;22;20234;-57
2021/11/14 04:23:42;;;;;;;46.83;28.67;;;;;;;;;;5050496;28;20182;-57
2021/11/14 04:26:11;;;;;;;44.55;27.98;;;;;;;;;;5050323;28;20214;-57
2021/11/14 04:28:39;;;;;;;39.80;25.35;;;;;;;;;;5050331;28;20219;-57
2021/11/14 04:31:06;;;;;;;42.70;26.55;;;;;;;;;;5050103;28;20224;-57
2021/11/14 04:33:33;;;;;;;48.00;27.83;;;;;;;;;;5050366;28;20216;-57
2021/11/14 04:36:01;;;;;;;47.58;28.92;;;;;;;;;;5050305;28;20243;-56
2021/11/14 04:38:28;;;;;;;46.65;28.30;;;;;;;;;;5050375;28;20248;-56
2021/11/14 04:40:56;;;;;;;45.90;27.13;;;;;;;;;;5050069;28;20210;-56
2021/11/14 04:43:25;;;;;;;45.00;26.05;;;;;;;;;;5050111;28;20209;-57
2021/11/14 04:45:53;;;;;;;40.67;25.60;;;;;;;;;;5050031;28;20231;-57
2021/11/14 04:48:21;;;;;;;45.50;27.00;;;;;;;;;;5049633;28;20218;-58
2021/11/14 04:50:48;;;;;;;44.65;28.27;;;;;;;;;;5049849;28;20210;-58
2021/11/14 04:53:16;;;;;;;45.72;26.95;;;;;;;;;;5049956;28;20204;-56
2021/11/14 04:55:44;;;;;;;42.45;24.02;;;;;;;;;;5049592;28;20208;-58
2021/11/14 04:58:13;;;;;;;50.58;27.52;;;;;;;;;;5049516;28;20678;-56
2021/11/14 05:00:44;;;;;;;40.97;26.27;;;;;;;;;;5049729;28;20211;-57
2021/11/14 05:03:13;;;;;;;46.28;28.17;;;;;;;;;;5049428;28;20645;-57
2021/11/14 05:05:41;;;;;;;40.47;25.70;;;;;;;;;;5049436;28;20710;-58
2021/11/14 05:08:09;;;;;;;45.42;27.33;;;;;;;;;;5049266;28;20780;-55
2021/11/14 05:10:37;;;;;;;48.00;26.45;;;;;;;;;;5049255;28;20210;-56
2021/11/14 05:13:04;;;;;;;44.70;25.73;;;;;;;;;;5049567;28;20222;-56
2021/11/14 05:15:32;;;;;;;43.63;26.23;;;;;;;;;;5049564;28;20202;-56
2021/11/14 05:18:01;;;;;;;41.70;23.95;;;;;;;;;;5048875;28;20204;-55
2021/11/14 05:20:28;;;;;;;42.30;24.50;;;;;;;;;;5035369;28;20203;-56
2021/11/14 05:22:56;;;;;;;41.42;24.30;;;;;;;;;;5035759;28;20246;-56
2021/11/14 05:25:23;;;;;;;43.15;24.38;;;;;;;;;;5035924;28;20215;-56
2021/11/14 05:27:50;;;;;;;38.10;22.70;;;;;;;;;;5035914;28;20224;-56
2021/11/14 05:30:18;;;;;;;44.35;24.05;;;;;;;;;;5035912;28;20207;-56
2021/11/14 05:32:45;;;;;;;48.20;24.15;;;;;;;;;;5035577;28;20223;-55
2021/11/14 05:35:15;;;;;;;41.72;24.17;;;;;;;;;;5036161;28;20208;-56
2021/11/14 05:37:42;;;;;;;41.55;24.23;;;;;;;;;;5036066;28;20250;-56
2021/11/14 05:40:10;;;;;;;47.80;24.90;;;;;;;;;;5036121;28;20211;-56
2021/11/14 05:42:38;;;;;;;43.88;23.55;;;;;;;;;;5035366;28;20601;-56
2021/11/14 05:45:05;;;;;;;41.90;25.13;;;;;;;;;;5035778;28;20208;-55
2021/11/14 05:47:33;;;;;;;48.50;24.92;;;;;;;;;;5035661;28;20681;-56
2021/11/14 05:50:00;;;;;;;48.10;24.45;;;;;;;;;;5035378;28;20698;-58
2021/11/14 05:52:29;;;;;;;41.60;23.38;;;;;;;;;;5035078;28;20240;-58
2021/11/14 05:54:56;;;;;;;42.55;24.10;;;;;;;;;;5036260;28;20214;-58
2021/11/14 05:57:24;;;;;;;52.38;26.60;;;;;;;;;;5035488;28;20331;-58
2021/11/14 05:59:57;;;;;;;44.75;25.33;;;;;;;;;;5035294;28;20731;-58
2021/11/14 06:02:35;;;;;;;48.78;25.42;;;;;;;;;;5035382;28;20230;-58
2021/11/14 06:05:11;;;;;;;43.22;24.83;;;;;;;;;;5035359;28;20610;-58
2021/11/14 06:07:40;;;;;;;45.35;23.60;;;;;;;;;;5034896;28;20579;-58
2021/11/14 06:10:07;;;;;;;44.33;24.48;;;;;;;;;;5035280;28;20200;-57
2021/11/14 06:12:37;;;;;;;45.65;25.08;;;;;;;;;;5034845;28;20223;-58
2021/11/14 06:15:05;;;;;;;50.83;25.20;;;;;;;;;;5034903;28;20211;-58
2021/11/14 06:17:32;;;;;;;46.30;24.50;;;;;;;;;;5035403;28;20211;-58
2021/11/14 06:20:00;;;;;;;45.22;24.25;;;;;;;;;;5035352;28;20582;-57
2021/11/14 06:22:27;;;;;;;43.80;24.33;;;;;;;;;;5035155;28;20244;-58
2021/11/14 06:24:56;;;;;;;44.80;25.48;;;;;;;;;;5035145;28;20207;-57
2021/11/14 06:27:23;;;;;;;43.80;25.20;;;;;;;;;;5035197;28;20208;-57
2021/11/14 06:29:50;;;;;;;39.72;24.40;;;;;;;;;;5034525;28;20215;-58
2021/11/14 06:32:18;;;;;;;37.25;21.80;;;;;;;;;;5034541;28;20594;-58
2021/11/14 06:34:45;;;;;;;42.65;25.23;;;;;;;;;;5034799;28;20199;-58
2021/11/14 06:37:13;;;;;;;49.97;25.90;;;;;;;;;;5034920;28;20200;-58
2021/11/14 06:39:40;;;;;;;47.50;25.63;;;;;;;;;;5034747;28;20210;-58
2021/11/14 06:42:09;;;;;;;44.00;24.33;;;;;;;;;;5034827;28;20228;-58
2021/11/14 06:44:37;;;;;;;42.70;23.83;;;;;;;;;;5034586;28;20691;-58
2021/11/14 06:47:04;;;;;;;43.45;22.20;;;;;;;;;;5034995;28;20208;-58
2021/11/14 06:49:31;;;;;;;43.42;22.90;;;;;;;;;;5034544;28;20230;-58
2021/11/14 06:51:59;;;;;;;37.92;23.48;;;;;;;;;;5034682;28;20236;-58
2021/11/14 06:54:26;;;;;;;38.60;23.15;;;;;;;;;;5034225;28;20215;-58
2021/11/14 06:56:53;;;;;;;40.05;22.13;;;;;;;;;;5034251;28;20206;-58
2021/11/14 06:59:22;;;;;;;40.05;23.83;;;;;;;;;;5034766;28;20553;-58
2021/11/14 07:01:49;;;;;;;40.30;22.70;;;;;;;;;;5034311;28;20230;-58
2021/11/14 07:04:17;;;;;;;39.38;23.60;;;;;;;;;;5034022;28;20215;-58
2021/11/14 07:06:45;;;;;;;35.22;21.25;;;;;;;;;;5034210;28;20557;-58
2021/11/14 07:09:14;;;;;;;40.05;23.52;;;;;;;;;;5033720;28;20219;-58
2021/11/14 07:11:41;;;;;;;38.15;21.08;;;;;;;;;;5033947;28;20393;-58
2021/11/14 07:14:09;;;;;;;42.08;23.50;;;;;;;;;;5033936;28;20282;-58
2021/11/14 07:16:37;;;;;;;42.47;23.05;;;;;;;;;;5033641;28;20726;-58
2021/11/14 07:19:05;;;;;;;38.20;21.92;;;;;;;;;;5033551;28;20208;-57
2021/11/14 07:21:32;;;;;;;38.25;23.35;;;;;;;;;;5033593;28;20251;-58
2021/11/14 07:24:00;;;;;;;40.15;23.73;;;;;;;;;;5033904;28;20192;-57
2021/11/14 07:26:27;;;;;;;43.08;23.88;;;;;;;;;;5033436;28;20215;-58
2021/11/14 07:28:55;;;;;;;41.30;24.00;;;;;;;;;;5033443;28;20700;-58
2021/11/14 07:31:22;;;;;;;36.28;22.80;;;;;;;;;;5033634;28;20632;-57
2021/11/14 07:33:51;;;;;;;40.40;23.33;;;;;;;;;;5033602;28;20212;-57
2021/11/14 07:36:18;;;;;;;39.83;22.67;;;;;;;;;;5033629;28;20208;-58
2021/11/14 07:38:47;;;;;;;38.50;21.90;;;;;;;;;;5033320;28;20673;-58
2021/11/14 07:41:14;;;;;;;40.75;22.75;;;;;;;;;;5033471;28;20252;-58
2021/11/14 07:43:42;;;;;;;44.70;24.55;;;;;;;;;;5033178;28;20208;-58
2021/11/14 07:46:10;;;;;;;43.25;23.73;;;;;;;;;;5033453;28;20211;-58
2021/11/14 07:48:37;;;;;;;40.42;22.85;;;;;;;;;;5033250;28;20228;-58
2021/11/14 07:51:06;;;;;;;41.03;23.52;;;;;;;;;;5033179;28;20609;-58
2021/11/14 07:53:33;;;;;;;40.30;23.90;;;;;;;;;;5033394;28;20211;-58
2021/11/14 07:56:01;;;;;;;38.78;23.20;;;;;;;;;;5033370;28;20208;-58
2021/11/14 07:58:28;;;;;;;40.85;25.27;;;;;;;;;;5033529;28;20198;-58
2021/11/14 08:00:55;;;;;;;40.72;24.50;;;;;;;;;;5033199;28;20305;-58
2021/11/14 08:03:23;;;;;;;38.08;23.33;;;;;;;;;;5033173;28;20215;-57
2021/11/14 08:05:51;;;;;;;37.85;24.05;;;;;;;;;;5033057;28;20208;-57
2021/11/14 08:08:19;;;;;;;41.90;24.50;;;;;;;;;;5033085;28;20244;-58
2021/11/14 08:10:47;;;;;;;36.33;23.02;;;;;;;;;;5033092;28;20222;-58
2021/11/14 08:13:14;;;;;;;37.35;24.65;;;;;;;;;;5033285;28;20583;-58
2021/11/14 08:15:41;;;;;;;42.10;23.70;;;;;;;;;;5033410;28;20200;-58
2021/11/14 08:18:09;;;;;;;36.05;24.90;;;;;;;;;;5033244;28;20211;-58
2021/11/14 08:20:36;;;;;;;37.92;24.88;;;;;;;;;;5032831;28;20204;-58
2021/11/14 08:23:05;;;;;;;42.05;24.75;;;;;;;;;;5032644;28;20712;-58
2021/11/14 08:25:34;;;;;;;37.42;22.90;;;;;;;;;;5032892;28;20209;-58
2021/11/14 08:28:02;;;;;;;38.60;25.30;;;;;;;;;;5032909;28;20209;-58
2021/11/14 08:30:29;;;;;;;42.67;26.13;;;;;;;;;;5033026;28;20207;-58
2021/11/14 08:32:57;;;;;;;34.25;23.85;;;;;;;;;;5032958;28;20232;-57
2021/11/14 08:35:25;;;;;;;39.95;25.90;;;;;;;;;;5033083;28;20208;-58
2021/11/14 08:37:56;;;;;;;37.38;25.98;;;;;;;;;;5032848;28;20207;-58
2021/11/14 08:40:24;;;;;;;41.28;26.90;;;;;;;;;;5032629;28;20227;-58
2021/11/14 08:42:53;;;;;;;40.47;27.45;;;;;;;;;;5032588;28;20220;-58
2021/11/14 08:45:20;;;;;;;38.80;26.05;;;;;;;;;;5032893;28;20211;-60
2021/11/14 08:47:48;;;;;;;35.70;26.17;;;;;;;;;;5032622;28;20574;-58
2021/11/14 08:50:15;;;;;;;38.58;25.77;;;;;;;;;;5032689;28;20298;-58
2021/11/14 08:52:45;;;;;;;40.92;24.13;;;;;;;;;;5032651;28;20229;-58
2021/11/14 08:55:13;;;;;;;37.30;26.23;;;;;;;;;;5035380;28;20650;-58
2021/11/14 08:57:41;;;;;;;35.33;24.85;;;;;;;;;;5036240;28;20217;-58
2021/11/14 09:00:11;;;;;;;38.75;26.88;;;;;;;;;;5036406;28;20201;-57
2021/11/14 09:02:38;;;;;;;39.75;26.27;;;;;;;;;;5036035;28;20221;-58
2021/11/14 09:05:06;;;;;;;35.53;25.23;;;;;;;;;;5036135;28;20656;-58
2021/11/14 09:07:33;;;;;;;39.92;27.48;;;;;;;;;;5035905;28;20577;-58
2021/11/14 09:10:01;;;;;;;33.88;24.95;;;;;;;;;;5036729;28;20220;-57
2021/11/14 09:12:29;;;;;;;35.58;25.70;;;;;;;;;;5036431;28;20236;-58
2021/11/14 09:14:57;;;;;;;34.60;25.67;;;;;;;;;;5036596;28;20209;-58
2021/11/14 09:17:25;;;;;;;35.63;24.10;;;;;;;;;;5036204;28;20243;-58
2021/11/14 09:19:53;;;;;;;36.20;25.35;;;;;;;;;;5036373;28;20201;-58
2021/11/14 09:22:20;;;;;;;39.75;27.30;;;;;;;;;;5035649;28;20235;-58
2021/11/14 09:24:47;;;;;;;34.15;25.13;;;;;;;;;;5036061;28;20209;-58
2021/11/14 09:27:15;;;;;;;41.65;26.02;;;;;;;;;;5035578;28;20236;-58
2021/11/14 09:29:42;;;;;;;37.35;25.20;;;;;;;;;;5035393;28;20228;-58
2021/11/14 09:32:10;;;;;;;34.17;25.08;;;;;;;;;;5035859;28;20230;-58
2021/11/14 09:34:39;;;;;;;41.58;24.45;;;;;;;;;;5035979;28;20217;-57
2021/11/14 09:37:07;;;;;;;36.42;25.90;;;;;;;;;;5035947;28;20211;-58
2021/11/14 09:39:34;;;;;;;32.58;25.15;;;;;;;;;;5035744;28;20202;-58
2021/11/14 09:42:02;;;;;;;35.72;24.77;;;;;;;;;;5035292;28;20735;-58
2021/11/14 09:44:29;;;;;;;34.30;24.65;;;;;;;;;;5035611;28;20205;-59
2021/11/14 09:46:57;;;;;;;35.67;24.58;;;;;;;;;;5035395;28;20209;-58
2021/11/14 09:49:26;;;;;;;38.80;25.38;;;;;;;;;;5035688;28;20232;-59
2021/11/14 09:51:55;;;;;;;35.33;24.00;;;;;;;;;;5035403;28;20312;-58
2021/11/14 09:54:23;;;;;;;34.50;25.63;;;;;;;;;;5035460;28;20207;-58
2021/11/14 09:56:52;;;;;;;33.60;24.63;;;;;;;;;;5035186;28;20209;-59
2021/11/14 09:59:19;;;;;;;29.75;23.23;;;;;;;;;;5035678;28;20205;-58
2021/11/14 10:01:46;;;;;;;34.15;25.30;;;;;;;;;;5035253;28;20220;-58
2021/11/14 10:04:14;;;;;;;31.75;23.23;;;;;;;;;;5035073;28;20208;-58
2021/11/14 10:06:41;;;;;;;33.30;23.20;;;;;;;;;;5035139;28;20575;-58
2021/11/14 10:09:10;;;;;;;29.23;22.55;;;;;;;;;;5035090;28;20225;-58
2021/11/14 10:11:38;;;;;;;29.90;23.08;;;;;;;;;;5035168;28;20228;-58
2021/11/14 10:14:06;;;;;;;33.78;23.42;;;;;;;;;;5034797;28;20610;-58
2021/11/14 10:16:35;;;;;;;33.30;23.88;;;;;;;;;;5034751;28;20208;-58
2021/11/14 10:19:03;;;;;;;32.13;22.75;;;;;;;;;;5035004;28;20205;-58
2021/11/14 10:21:32;;;;;;;33.05;24.10;;;;;;;;;;5034697;28;20232;-58
2021/11/14 10:24:00;;;;;;;35.15;24.15;;;;;;;;;;5034607;28;20678;-58
2021/11/14 10:26:29;;;;;;;32.75;23.55;;;;;;;;;;5034566;28;20232;-58
2021/11/14 10:29:00;;;;;;;39.13;24.50;;;;;;;;;;5059122;22;20607;-61
2021/11/14 10:31:28;;;;;;;34.30;23.88;;;;;;;;;;5035066;28;20214;-60
2021/11/14 10:33:55;;;;;;;36.95;23.90;;;;;;;;;;5035106;28;20238;-62
2021/11/14 10:36:24;;;;;;;36.13;24.40;;;;;;;;;;5034782;28;20208;-59
2021/11/14 10:38:51;;;;;;;34.40;23.80;;;;;;;;;;5034893;28;20815;-60
2021/11/14 10:41:19;;;;;;;30.13;23.08;;;;;;;;;;5034372;28;20206;-60
2021/11/14 10:43:48;;;;;;;33.42;24.20;;;;;;;;;;5034397;28;20291;-59
2021/11/14 10:46:17;;;;;;;29.60;22.95;;;;;;;;;;5035449;28;20213;-59
2021/11/14 10:48:44;;;;;;;35.47;23.75;;;;;;;;;;5035260;28;20240;-60
2021/11/14 10:51:13;;;;;;;36.15;23.13;;;;;;;;;;5034689;28;20209;-58
2021/11/14 10:53:42;;;;;;;33.00;24.25;;;;;;;;;;5034473;28;20248;-60
2021/11/14 10:56:11;;;;;;;33.15;24.30;;;;;;;;;;5034065;28;20233;-61
2021/11/14 10:58:40;;;;;;;39.70;25.38;;;;;;;;;;5033956;28;20273;-61
2021/11/14 11:01:10;;;;;;;31.90;24.30;;;;;;;;;;5034036;28;20242;-61
2021/11/14 11:03:38;;;;;;;39.15;27.17;;;;;;;;;;5034020;28;20204;-62
2021/11/14 11:06:07;;;;;;;36.58;23.65;;;;;;;;;;5034100;28;20212;-62
2021/11/14 11:08:35;;;;;;;31.45;22.25;;;;;;;;;;5034324;28;20600;-60
2021/11/14 11:11:04;;;;;;;35.60;24.30;;;;;;;;;;5034212;28;20208;-59
2021/11/14 11:13:32;;;;;;;36.35;24.58;;;;;;;;;;5034440;28;20471;-60
2021/11/14 11:16:03;;;;;;;31.10;23.05;;;;;;;;;;5034158;28;20198;-62
2021/11/14 11:18:32;;;;;;;28.85;22.02;;;;;;;;;;5034069;28;20226;-62
2021/11/14 11:21:03;;;;;;;30.42;24.05;;;;;;;;;;5037185;28;20198;-62
2021/11/14 11:23:32;;;;;;;30.00;22.45;;;;;;;;;;5037307;28;20190;-61
2021/11/14 11:26:00;;;;;;;29.05;20.95;;;;;;;;;;5038570;28;20205;-61
2021/11/14 11:28:29;;;;;;;29.40;21.47;;;;;;;;;;5037818;28;20237;-61
2021/11/14 11:30:59;;;;;;;34.70;21.70;;;;;;;;;;5037724;28;21001;-60
2021/11/14 11:33:27;;;;;;;31.23;22.45;;;;;;;;;;5036705;28;20201;-61
2021/11/14 11:35:56;;;;;;;29.45;21.08;;;;;;;;;;5036584;28;20212;-61
2021/11/14 11:38:25;;;;;;;28.05;20.27;;;;;;;;;;5035725;28;20224;-60
2021/11/14 11:40:53;;;;;;;31.92;23.02;;;;;;;;;;5036104;28;20205;-60
2021/11/14 11:43:20;;;;;;;30.05;20.85;;;;;;;;;;5036834;28;20213;-59
2021/11/14 11:45:49;;;;;;;32.45;22.67;;;;;;;;;;5037341;28;20205;-59
2021/11/14 11:48:19;;;;;;;33.40;22.23;;;;;;;;;;5035823;28;20206;-61
2021/11/14 11:50:46;;;;;;;34.30;20.80;;;;;;;;;;5034304;28;20224;-60
2021/11/14 11:53:26;;;;;;;29.38;21.83;;;;;;;;;;5034171;28;20586;-61
2021/11/14 11:56:02;;;;;;;32.65;21.38;;;;;;;;;;5033940;28;20257;-61
2021/11/14 11:58:37;;;;;;;28.33;20.40;;;;;;;;;;5033203;28;20224;-62
2021/11/14 12:01:05;;;;;;;35.40;21.73;;;;;;;;;;5033059;28;20180;-62
2021/11/14 12:03:35;;;;;;;29.73;19.80;;;;;;;;;;5033252;28;20217;-61
2021/11/14 12:06:03;;;;;;;29.08;21.00;;;;;;;;;;5033556;28;20209;-61
2021/11/14 12:08:39;;;;;;;30.33;20.63;;;;;;;;;;5033268;28;20596;-62
2021/11/14 12:11:09;;;;;;;28.58;21.02;;;;;;;;;;5033113;28;20699;-63
2021/11/14 12:13:40;;;;;;;31.67;20.10;;;;;;;;;;5032876;28;20248;-60
2021/11/14 12:16:08;;;;;;;27.50;20.15;;;;;;;;;;5033215;28;20307;-61
2021/11/14 12:18:39;;;;;;;29.38;19.42;;;;;;;;;;5033186;28;20297;-62
2021/11/14 12:21:14;;;;;;;27.25;19.27;;;;;;;;;;5033409;28;20198;-62
2021/11/14 12:23:50;;;;;;;23.48;17.95;;;;;;;;;;5033165;28;20199;-61
2021/11/14 12:26:17;;;;;;;29.23;19.20;;;;;;;;;;5033297;28;20212;-62
2021/11/14 12:28:45;;;;;;;32.42;20.52;;;;;;;;;;5033844;28;20232;-60
2021/11/14 12:31:16;;;;;;;26.05;18.73;;;;;;;;;;5036787;28;20223;-61
2021/11/14 12:33:44;;;;;;;31.33;18.50;;;;;;;;;;5037389;28;20193;-61
2021/11/14 12:36:20;;;;;;;24.35;17.15;;;;;;;;;;5037296;28;20206;-60
2021/11/14 12:38:49;;;;;;;27.02;19.35;;;;;;;;;;5036667;28;20689;-61
2021/11/14 12:41:17;;;;;;;30.90;20.10;;;;;;;;;;5036624;28;20199;-59
2021/11/14 12:43:46;;;;;;;27.33;20.35;;;;;;;;;;5036913;28;20258;-61
2021/11/14 12:46:14;;;;;;;27.95;20.02;;;;;;;;;;5036844;28;20216;-59
2021/11/14 12:48:43;;;;;;;34.78;21.95;;;;;;;;;;5036297;28;20220;-59
2021/11/14 12:51:11;;;;;;;30.17;21.13;;;;;;;;;;5036631;28;20246;-60
2021/11/14 12:53:51;;;;;;;30.25;20.88;;;;;;;;;;5036622;28;20208;-60
2021/11/14 12:56:19;;;;;;;30.13;21.08;;;;;;;;;;5036570;28;20201;-61
2021/11/14 12:58:46;;;;;;;33.20;23.13;;;;;;;;;;5036574;28;20734;-60
2021/11/14 13:01:15;;;;;;;36.88;24.08;;;;;;;;;;5036812;28;20219;-62
2021/11/14 13:03:43;;;;;;;41.95;24.50;;;;;;;;;;5036387;28;20689;-62
2021/11/14 13:06:18;;;;;;;41.80;26.40;;;;;;;;;;5037944;28;20208;-61
2021/11/14 13:08:45;;;;;;;37.38;25.30;;;;;;;;;;5037605;28;20236;-61
2021/11/14 13:11:22;;;;;;;37.45;24.50;;;;;;;;;;5037298;28;20229;-62
2021/11/14 13:13:50;;;;;;;37.05;24.88;;;;;;;;;;5036738;28;20212;-62
2021/11/14 13:16:20;;;;;;;36.20;24.88;;;;;;;;;;5037811;28;20205;-61
2021/11/14 13:18:47;;;;;;;36.65;25.25;;;;;;;;;;5036830;28;20228;-62
2021/11/14 13:21:16;;;;;;;35.90;24.88;;;;;;;;;;5036070;28;20696;-61
2021/11/14 13:23:53;;;;;;;41.45;27.30;;;;;;;;;;5036044;28;20586;-61
2021/11/14 13:26:22;;;;;;;41.67;26.42;;;;;;;;;;5036385;28;20212;-61
2021/11/14 13:28:49;;;;;;;42.55;27.17;;;;;;;;;;5035975;28;20266;-61
2021/11/14 13:31:17;;;;;;;43.72;27.33;;;;;;;;;;5036470;28;20596;-62
2021/11/14 13:33:46;;;;;;;43.42;26.48;;;;;;;;;;5035926;28;20205;-61
2021/11/14 13:36:18;;;;;;;41.63;27.48;;;;;;;;;;5036092;28;20212;-62
2021/11/14 13:38:48;;;;;;;45.53;29.42;;;;;;;;;;5035692;28;20763;-62
2021/11/14 13:41:17;;;;;;;45.50;29.02;;;;;;;;;;5035657;28;20233;-60
2021/11/14 13:43:56;;;;;;;39.05;26.40;;;;;;;;;;5042064;28;20204;-62
2021/11/14 13:46:24;;;;;;;40.30;26.83;;;;;;;;;;5040767;28;20193;-62
2021/11/14 13:48:52;;;;;;;40.75;26.35;;;;;;;;;;5040567;28;20227;-61
2021/11/14 13:51:20;;;;;;;45.60;30.13;;;;;;;;;;5040781;28;20228;-61
2021/11/14 13:53:47;;;;;;;46.85;28.58;;;;;;;;;;5040227;28;20212;-61
2021/11/14 13:56:15;;;;;;;43.55;28.88;;;;;;;;;;5042171;28;20205;-60
2021/11/14 13:58:45;;;;;;;43.45;28.55;;;;;;;;;;5041944;28;20233;-61
2021/11/14 14:01:14;;;;;;;41.95;28.20;;;;;;;;;;5041928;28;20203;-61
2021/11/14 14:03:42;;;;;;;46.60;29.60;;;;;;;;;;5041827;28;20208;-60
2021/11/14 14:06:10;;;;;;;51.08;30.35;;;;;;;;;;5041245;28;20638;-61
2021/11/14 14:08:38;;;;;;;45.40;29.58;;;;;;;;;;5042155;28;20240;-61
2021/11/14 14:11:06;;;;;;;45.35;30.25;;;;;;;;;;5039962;28;20228;-61
2021/11/14 14:13:34;;;;;;;44.60;29.58;;;;;;;;;;5037002;28;20584;-62
2021/11/14 14:16:02;;;;;;;52.80;31.77;;;;;;;;;;5035164;28;20208;-62
2021/11/14 14:18:30;;;;;;;44.08;29.63;;;;;;;;;;5034878;28;20220;-62
2021/11/14 14:21:00;;;;;;;50.38;30.70;;;;;;;;;;5035362;28;20257;-62
2021/11/14 14:23:28;;;;;;;50.95;31.35;;;;;;;;;;5034835;28;20291;-62